PWSweather.com
Personal Weather Stations
Station Observations
SHAHALMS1
Eftra, Falkenberg, HA

EftraFalkenberg, HA

Lat: 56.85, Lon: 12.65

Elevation: 140

Station Type:

http://hem.passagen.se/risarp101

High Low Average
Temperature 35.2°F1.8°C 32.5°F0.3°C 33.6°F0.9°C
Dew Point 34.0°F1.1°C 30.7°F-0.7°C 32.0°F0.0°C
Winds 6.4 mph 10.3 kmh Calm Calm 1.0 mph NE1.6 kmh NE
Wind Gusts 17.5 mph28.2 kmh -- 5.0 mph8.0 kmh
Humidity 95% 93% 94%
Pressure 29.00 in982.1 mb 28.77 in974.3 mb -
Precipitation 0.19 in4.8 mm - -
Hour Temp Dew Point Humidity Winds Wind Gusts Pressure Precip Precip Rate Daily Precip Total
12:00 AM 33.3°F0.7°C 31.5°F-0.3°C 93% 3.3 mph ESE5.3 kmh ESE 13.6 mph21.9 kmh 29.00 in982.1 mb 0.00 in0.0 mm 0.00 in0.0 mm 0.00 in0.0 mm
12:15 AM 33.3°F0.7°C 31.5°F-0.3°C 93% 4.4 mph SE7.1 kmh SE 14.0 mph22.5 kmh 29.00 in982.1 mb 0.00 in0.0 mm 0.00 in0.0 mm 0.00 in0.0 mm
12:30 AM 33.3°F0.7°C 31.7°F-0.2°C 94% 3.3 mph SE5.3 kmh SE 17.5 mph28.2 kmh 28.97 in981.0 mb 0.00 in0.0 mm 0.00 in0.0 mm 0.00 in0.0 mm
12:45 AM 33.3°F0.7°C 31.7°F-0.2°C 94% 3.1 mph ESE5.0 kmh ESE 10.0 mph16.1 kmh 28.94 in980.0 mb 0.00 in0.0 mm 0.00 in0.0 mm 0.00 in0.0 mm
01:00 AM 33.4°F0.8°C 31.9°F-0.1°C 94% 6.4 mph ESE10.3 kmh ESE 14.0 mph22.5 kmh 28.97 in981.0 mb 0.00 in0.0 mm 0.00 in0.0 mm 0.00 in0.0 mm
01:15 AM 33.3°F0.7°C 31.7°F-0.2°C 94% 2.3 mph E3.7 kmh E 10.4 mph16.7 kmh 28.97 in981.0 mb 0.00 in0.0 mm 0.00 in0.0 mm 0.00 in0.0 mm
01:30 AM 33.3°F0.7°C 31.7°F-0.2°C 94% 3.1 mph SE5.0 kmh SE 12.2 mph19.6 kmh 28.94 in980.0 mb 0.00 in0.0 mm 0.00 in0.0 mm 0.00 in0.0 mm
01:45 AM 33.3°F0.7°C 31.5°F-0.3°C 93% 0.7 mph SE1.1 kmh SE 5.7 mph9.2 kmh 28.91 in979.0 mb 0.00 in0.0 mm 0.00 in0.0 mm 0.00 in0.0 mm
02:00 AM 33.3°F0.7°C 31.7°F-0.2°C 94% 1.1 mph SE1.8 kmh SE 6.8 mph10.9 kmh 28.91 in979.0 mb 0.06 in1.5 mm 0.08 in2.0 mm 0.05 in1.3 mm
02:15 AM 33.3°F0.7°C 31.7°F-0.2°C 94% 1.2 mph SE1.9 kmh SE 7.5 mph12.1 kmh 28.91 in979.0 mb 0.06 in1.5 mm 0.00 in0.0 mm 0.05 in1.3 mm
02:30 AM 33.4°F0.8°C 31.9°F-0.1°C 94% 2.3 mph SE3.7 kmh SE 10.0 mph16.1 kmh 28.94 in980.0 mb 0.06 in1.5 mm 0.00 in0.0 mm 0.05 in1.3 mm
02:45 AM 33.4°F0.8°C 31.9°F-0.1°C 94% 0.9 mph E1.4 kmh E 7.9 mph12.7 kmh 28.91 in979.0 mb 0.06 in1.5 mm 0.00 in0.0 mm 0.05 in1.3 mm
03:00 AM 33.6°F0.9°C 32.1°F0.1°C 94% 1.7 mph ESE2.7 kmh ESE 8.6 mph13.8 kmh 28.91 in979.0 mb 0.00 in0.0 mm 0.00 in0.0 mm 0.05 in1.3 mm
03:15 AM 33.6°F0.9°C 32.1°F0.1°C 94% 2.1 mph ESE3.4 kmh ESE 9.3 mph15.0 kmh 28.88 in978.0 mb 0.00 in0.0 mm 0.00 in0.0 mm 0.05 in1.3 mm
03:30 AM 33.6°F0.9°C 32.1°F0.1°C 94% 1.3 mph ESE2.1 kmh ESE 8.9 mph14.3 kmh 28.88 in978.0 mb 0.00 in0.0 mm 0.00 in0.0 mm 0.05 in1.3 mm
03:45 AM 33.8°F1.0°C 32.3°F0.2°C 94% 4.4 mph ESE7.1 kmh ESE 13.6 mph21.9 kmh 28.88 in978.0 mb 0.00 in0.0 mm 0.00 in0.0 mm 0.05 in1.3 mm
04:00 AM 34.0°F1.1°C 32.4°F0.2°C 94% 2.9 mph ESE4.7 kmh ESE 11.5 mph18.5 kmh 28.88 in978.0 mb 0.00 in0.0 mm 0.00 in0.0 mm 0.05 in1.3 mm
04:15 AM 34.2°F1.2°C 32.9°F0.5°C 95% 2.7 mph SE4.3 kmh SE 11.8 mph19.0 kmh 28.85 in977.0 mb 0.04 in1.0 mm 0.16 in4.1 mm 0.10 in2.5 mm
04:30 AM 34.2°F1.2°C 32.6°F0.3°C 94% 0.8 mph SSE1.3 kmh SSE 7.9 mph12.7 kmh 28.85 in977.0 mb 0.04 in1.0 mm 0.00 in0.0 mm 0.10 in2.5 mm
04:45 AM 34.3°F1.3°C 32.8°F0.4°C 94% 3.2 mph ESE5.1 kmh ESE 10.4 mph16.7 kmh 28.82 in976.0 mb 0.04 in1.0 mm 0.00 in0.0 mm 0.10 in2.5 mm
05:00 AM 34.5°F1.4°C 33.2°F0.7°C 95% 6.0 mph SE9.7 kmh SE 14.0 mph22.5 kmh 28.85 in977.0 mb 0.04 in1.0 mm 0.00 in0.0 mm 0.10 in2.5 mm
05:15 AM 34.5°F1.4°C 33.2°F0.7°C 95% 3.6 mph SE5.8 kmh SE 12.9 mph20.8 kmh 28.88 in978.0 mb 0.00 in0.0 mm 0.00 in0.0 mm 0.10 in2.5 mm
05:30 AM 34.7°F1.5°C 33.4°F0.8°C 95% 4.2 mph ESE6.8 kmh ESE 12.9 mph20.8 kmh 28.85 in977.0 mb 0.00 in0.0 mm 0.00 in0.0 mm 0.10 in2.5 mm
05:45 AM 34.7°F1.5°C 33.4°F0.8°C 95% 2.2 mph E3.5 kmh E 10.4 mph16.7 kmh 28.85 in977.0 mb 0.00 in0.0 mm 0.00 in0.0 mm 0.10 in2.5 mm
06:01 AM 34.7°F1.5°C 33.4°F0.8°C 95% 1.4 mph E2.3 kmh E 10.0 mph16.1 kmh 28.85 in977.0 mb 0.00 in0.0 mm 0.00 in0.0 mm 0.10 in2.5 mm
06:15 AM 34.7°F1.5°C 33.4°F0.8°C 95% 1.8 mph E2.9 kmh E 9.3 mph15.0 kmh 28.85 in977.0 mb 0.00 in0.0 mm 0.00 in0.0 mm 0.10 in2.5 mm
06:30 AM 34.9°F1.6°C 33.6°F0.9°C 95% 4.0 mph ESE6.4 kmh ESE 12.9 mph20.8 kmh 28.82 in976.0 mb 0.00 in0.0 mm 0.00 in0.0 mm 0.10 in2.5 mm
06:45 AM 35.1°F1.7°C 33.8°F1.0°C 95% 2.6 mph E4.2 kmh E 9.3 mph15.0 kmh 28.82 in976.0 mb 0.00 in0.0 mm 0.00 in0.0 mm 0.10 in2.5 mm
07:00 AM 35.1°F1.7°C 33.8°F1.0°C 95% 5.0 mph ESE8.0 kmh ESE 13.6 mph21.9 kmh 28.82 in976.0 mb 0.00 in0.0 mm 0.00 in0.0 mm 0.10 in2.5 mm
07:15 AM 35.2°F1.8°C 34.0°F1.1°C 95% 5.1 mph E8.2 kmh E 10.7 mph17.2 kmh 28.80 in975.3 mb 0.00 in0.0 mm 0.00 in0.0 mm 0.10 in2.5 mm
07:30 AM 35.2°F1.8°C 34.0°F1.1°C 95% 5.4 mph ESE8.7 kmh ESE 16.5 mph26.6 kmh 28.80 in975.3 mb 0.00 in0.0 mm 0.00 in0.0 mm 0.10 in2.5 mm
07:45 AM 35.2°F1.8°C 34.0°F1.1°C 95% 4.0 mph E6.4 kmh E 10.0 mph16.1 kmh 28.82 in976.0 mb 0.00 in0.0 mm 0.00 in0.0 mm 0.10 in2.5 mm
08:00 AM 35.2°F1.8°C 34.0°F1.1°C 95% 5.7 mph E9.2 kmh E 16.5 mph26.6 kmh 28.82 in976.0 mb 0.00 in0.0 mm 0.00 in0.0 mm 0.10 in2.5 mm
08:15 AM 35.2°F1.8°C 34.0°F1.1°C 95% 6.0 mph E9.7 kmh E 13.6 mph21.9 kmh 28.80 in975.3 mb 0.00 in0.0 mm 0.00 in0.0 mm 0.10 in2.5 mm
08:30 AM 35.2°F1.8°C 34.0°F1.1°C 95% 2.7 mph E4.3 kmh E 10.4 mph16.7 kmh 28.80 in975.3 mb 0.00 in0.0 mm 0.00 in0.0 mm 0.10 in2.5 mm
08:45 AM 35.2°F1.8°C 34.0°F1.1°C 95% 2.0 mph E3.2 kmh E 9.7 mph15.6 kmh 28.80 in975.3 mb 0.00 in0.0 mm 0.00 in0.0 mm 0.10 in2.5 mm
09:00 AM 35.1°F1.7°C 33.8°F1.0°C 95% 2.1 mph E3.4 kmh E 9.7 mph15.6 kmh 28.80 in975.3 mb 0.00 in0.0 mm 0.00 in0.0 mm 0.10 in2.5 mm
09:15 AM 34.9°F1.6°C 33.3°F0.7°C 94% 4.3 mph E6.9 kmh E 10.0 mph16.1 kmh 28.80 in975.3 mb 0.00 in0.0 mm 0.00 in0.0 mm 0.10 in2.5 mm
09:30 AM 34.7°F1.5°C 33.2°F0.7°C 94% 1.4 mph E2.3 kmh E 8.6 mph13.8 kmh 28.80 in975.3 mb 0.00 in0.0 mm 0.00 in0.0 mm 0.10 in2.5 mm
09:45 AM 34.5°F1.4°C 33.0°F0.6°C 94% 2.3 mph E3.7 kmh E 10.4 mph16.7 kmh 28.80 in975.3 mb 0.04 in1.0 mm 0.16 in4.1 mm 0.14 in3.6 mm
10:00 AM 34.5°F1.4°C 33.0°F0.6°C 94% 2.2 mph E3.5 kmh E 10.4 mph16.7 kmh 28.77 in974.3 mb 0.04 in1.0 mm 0.00 in0.0 mm 0.14 in3.6 mm
10:15 AM 34.2°F1.2°C 32.6°F0.3°C 94% 2.4 mph E3.9 kmh E 8.6 mph13.8 kmh 28.80 in975.3 mb 0.04 in1.0 mm 0.00 in0.0 mm 0.14 in3.6 mm
10:30 AM 34.0°F1.1°C 32.4°F0.2°C 94% 1.0 mph E1.6 kmh E 7.9 mph12.7 kmh 28.77 in974.3 mb 0.04 in1.0 mm 0.00 in0.0 mm 0.14 in3.6 mm
10:45 AM 34.2°F1.2°C 32.6°F0.3°C 94% 0.3 mph E0.5 kmh E 3.6 mph5.8 kmh 28.80 in975.3 mb 0.00 in0.0 mm 0.00 in0.0 mm 0.14 in3.6 mm
11:00 AM 34.2°F1.2°C 32.6°F0.3°C 94% 0.1 mph E0.2 kmh E 4.3 mph6.9 kmh 28.80 in975.3 mb 0.00 in0.0 mm 0.00 in0.0 mm 0.14 in3.6 mm
11:15 AM 34.2°F1.2°C 32.6°F0.3°C 94% 0.4 mph E0.6 kmh E 8.6 mph13.8 kmh 28.77 in974.3 mb 0.00 in0.0 mm 0.00 in0.0 mm 0.14 in3.6 mm
11:30 AM 34.2°F1.2°C 32.6°F0.3°C 94% Calm Calm -- 28.77 in974.3 mb 0.04 in1.0 mm 0.16 in4.1 mm 0.19 in4.8 mm
11:45 AM 33.8°F1.0°C 32.3°F0.2°C 94% 0.1 mph E0.2 kmh E 3.6 mph5.8 kmh 28.77 in974.3 mb 0.04 in1.0 mm 0.00 in0.0 mm 0.19 in4.8 mm
12:00 PM 33.8°F1.0°C 32.3°F0.2°C 94% 0.1 mph E0.2 kmh E 1.8 mph2.9 kmh 28.80 in975.3 mb 0.04 in1.0 mm 0.00 in0.0 mm 0.19 in4.8 mm
12:15 PM 33.4°F0.8°C 31.6°F-0.2°C 93% Calm Calm -- 28.77 in974.3 mb 0.04 in1.0 mm 0.00 in0.0 mm 0.19 in4.8 mm
12:30 PM 33.3°F0.7°C 31.5°F-0.3°C 93% Calm Calm -- 28.80 in975.3 mb 0.00 in0.0 mm 0.00 in0.0 mm 0.19 in4.8 mm
12:45 PM 33.3°F0.7°C 31.5°F-0.3°C 93% Calm Calm -- 28.80 in975.3 mb 0.00 in0.0 mm 0.00 in0.0 mm 0.19 in4.8 mm
01:00 PM 33.3°F0.7°C 31.5°F-0.3°C 93% Calm Calm -- 28.80 in975.3 mb 0.00 in0.0 mm 0.00 in0.0 mm 0.19 in4.8 mm
01:15 PM 33.3°F0.7°C 31.5°F-0.3°C 93% Calm Calm -- 28.77 in974.3 mb 0.00 in0.0 mm 0.00 in0.0 mm 0.19 in4.8 mm
01:30 PM 33.1°F0.6°C 31.3°F-0.4°C 93% Calm Calm -- 28.80 in975.3 mb 0.00 in0.0 mm 0.00 in0.0 mm 0.19 in4.8 mm
01:45 PM 33.1°F0.6°C 31.3°F-0.4°C 93% Calm Calm -- 28.80 in975.3 mb 0.00 in0.0 mm 0.00 in0.0 mm 0.19 in4.8 mm
02:01 PM 33.1°F0.6°C 31.3°F-0.4°C 93% Calm Calm -- 28.80 in975.3 mb 0.00 in0.0 mm 0.00 in0.0 mm 0.19 in4.8 mm
02:15 PM 33.1°F0.6°C 31.3°F-0.4°C 93% Calm Calm -- 28.80 in975.3 mb 0.00 in0.0 mm 0.00 in0.0 mm 0.19 in4.8 mm
02:30 PM 33.1°F0.6°C 31.3°F-0.4°C 93% Calm Calm -- 28.80 in975.3 mb 0.00 in0.0 mm 0.00 in0.0 mm 0.19 in4.8 mm
02:45 PM 33.1°F0.6°C 31.3°F-0.4°C 93% Calm Calm -- 28.80 in975.3 mb 0.00 in0.0 mm 0.00 in0.0 mm 0.19 in4.8 mm
03:00 PM 32.9°F0.5°C 31.1°F-0.5°C 93% Calm Calm -- 28.80 in975.3 mb 0.00 in0.0 mm 0.00 in0.0 mm 0.19 in4.8 mm
03:15 PM 32.9°F0.5°C 31.1°F-0.5°C 93% Calm Calm -- 28.80 in975.3 mb 0.00 in0.0 mm 0.00 in0.0 mm 0.19 in4.8 mm
03:30 PM 32.9°F0.5°C 31.1°F-0.5°C 93% Calm Calm -- 28.82 in976.0 mb 0.00 in0.0 mm 0.00 in0.0 mm 0.19 in4.8 mm
03:45 PM 32.9°F0.5°C 31.1°F-0.5°C 93% Calm Calm -- 28.82 in976.0 mb 0.00 in0.0 mm 0.00 in0.0 mm 0.19 in4.8 mm
04:00 PM 32.7°F0.4°C 30.9°F-0.6°C 93% Calm Calm -- 28.82 in976.0 mb 0.00 in0.0 mm 0.00 in0.0 mm 0.19 in4.8 mm
04:15 PM 32.7°F0.4°C 30.9°F-0.6°C 93% Calm Calm -- 28.82 in976.0 mb 0.00 in0.0 mm 0.00 in0.0 mm 0.19 in4.8 mm
04:30 PM 32.7°F0.4°C 30.9°F-0.6°C 93% Calm Calm -- 28.85 in977.0 mb 0.00 in0.0 mm 0.00 in0.0 mm 0.19 in4.8 mm
04:45 PM 32.7°F0.4°C 30.9°F-0.6°C 93% Calm Calm -- 28.85 in977.0 mb 0.00 in0.0 mm 0.00 in0.0 mm 0.19 in4.8 mm
05:00 PM 32.7°F0.4°C 30.9°F-0.6°C 93% Calm Calm -- 28.85 in977.0 mb 0.00 in0.0 mm 0.00 in0.0 mm 0.19 in4.8 mm
05:15 PM 32.7°F0.4°C 30.9°F-0.6°C 93% Calm Calm -- 28.88 in978.0 mb 0.00 in0.0 mm 0.00 in0.0 mm 0.19 in4.8 mm
05:30 PM 32.7°F0.4°C 30.9°F-0.6°C 93% Calm Calm -- 28.88 in978.0 mb 0.00 in0.0 mm 0.00 in0.0 mm 0.19 in4.8 mm
05:45 PM 32.7°F0.4°C 30.9°F-0.6°C 93% Calm Calm -- 28.85 in977.0 mb 0.00 in0.0 mm 0.00 in0.0 mm 0.19 in4.8 mm
06:00 PM 32.7°F0.4°C 30.9°F-0.6°C 93% Calm Calm -- 28.82 in976.0 mb 0.00 in0.0 mm 0.00 in0.0 mm 0.19 in4.8 mm
06:15 PM 32.7°F0.4°C 30.9°F-0.6°C 93% Calm Calm -- 28.85 in977.0 mb 0.00 in0.0 mm 0.00 in0.0 mm 0.19 in4.8 mm
06:30 PM 32.7°F0.4°C 30.9°F-0.6°C 93% Calm Calm -- 28.85 in977.0 mb 0.00 in0.0 mm 0.00 in0.0 mm 0.19 in4.8 mm
06:45 PM 32.7°F0.4°C 30.9°F-0.6°C 93% Calm Calm -- 28.85 in977.0 mb 0.00 in0.0 mm 0.00 in0.0 mm 0.19 in4.8 mm
07:00 PM 32.7°F0.4°C 30.9°F-0.6°C 93% Calm Calm 1.4 mph2.3 kmh 28.85 in977.0 mb 0.00 in0.0 mm 0.00 in0.0 mm 0.19 in4.8 mm
07:15 PM 32.7°F0.4°C 30.9°F-0.6°C 93% Calm Calm -- 28.85 in977.0 mb 0.00 in0.0 mm 0.00 in0.0 mm 0.19 in4.8 mm
07:30 PM 32.7°F0.4°C 30.9°F-0.6°C 93% Calm Calm -- 28.88 in978.0 mb 0.00 in0.0 mm 0.00 in0.0 mm 0.19 in4.8 mm
07:45 PM 32.5°F0.3°C 30.7°F-0.7°C 93% Calm Calm -- 28.88 in978.0 mb 0.00 in0.0 mm 0.00 in0.0 mm 0.19 in4.8 mm
08:00 PM 32.7°F0.4°C 30.9°F-0.6°C 93% Calm Calm -- 28.88 in978.0 mb 0.00 in0.0 mm 0.00 in0.0 mm 0.19 in4.8 mm
08:15 PM 32.7°F0.4°C 31.2°F-0.4°C 94% Calm Calm -- 28.88 in978.0 mb 0.00 in0.0 mm 0.00 in0.0 mm 0.19 in4.8 mm
08:30 PM 32.7°F0.4°C 31.2°F-0.4°C 94% Calm Calm 1.4 mph2.3 kmh 28.88 in978.0 mb 0.00 in0.0 mm 0.00 in0.0 mm 0.19 in4.8 mm
08:45 PM 32.7°F0.4°C 31.2°F-0.4°C 94% Calm Calm -- 28.91 in979.0 mb 0.00 in0.0 mm 0.00 in0.0 mm 0.19 in4.8 mm
09:00 PM 32.7°F0.4°C 31.2°F-0.4°C 94% Calm Calm -- 28.91 in979.0 mb 0.00 in0.0 mm 0.00 in0.0 mm 0.19 in4.8 mm
09:15 PM 32.7°F0.4°C 31.2°F-0.4°C 94% Calm Calm -- 28.91 in979.0 mb 0.00 in0.0 mm 0.00 in0.0 mm 0.19 in4.8 mm
09:30 PM 32.7°F0.4°C 31.2°F-0.4°C 94% Calm Calm -- 28.94 in980.0 mb 0.00 in0.0 mm 0.00 in0.0 mm 0.19 in4.8 mm
09:45 PM 32.9°F0.5°C 31.4°F-0.3°C 94% Calm Calm -- 28.91 in979.0 mb 0.00 in0.0 mm 0.00 in0.0 mm 0.19 in4.8 mm
10:02 PM 32.7°F0.4°C 31.2°F-0.4°C 94% Calm Calm -- 28.88 in978.0 mb 0.00 in0.0 mm 0.00 in0.0 mm 0.19 in4.8 mm
10:15 PM 32.7°F0.4°C 31.2°F-0.4°C 94% Calm Calm -- 28.91 in979.0 mb 0.00 in0.0 mm 0.00 in0.0 mm 0.19 in4.8 mm
10:30 PM 32.9°F0.5°C 31.4°F-0.3°C 94% Calm Calm -- 28.91 in979.0 mb 0.00 in0.0 mm 0.00 in0.0 mm 0.19 in4.8 mm
10:45 PM 32.9°F0.5°C 31.4°F-0.3°C 94% Calm Calm -- 28.91 in979.0 mb 0.00 in0.0 mm 0.00 in0.0 mm 0.19 in4.8 mm
11:00 PM 32.7°F0.4°C 31.2°F-0.4°C 94% Calm Calm -- 28.88 in978.0 mb 0.00 in0.0 mm 0.00 in0.0 mm 0.19 in4.8 mm
11:15 PM 32.7°F0.4°C 31.2°F-0.4°C 94% Calm Calm -- 28.88 in978.0 mb 0.00 in0.0 mm 0.00 in0.0 mm 0.19 in4.8 mm
11:30 PM 32.9°F0.5°C 31.4°F-0.3°C 94% Calm Calm -- 28.88 in978.0 mb 0.00 in0.0 mm 0.00 in0.0 mm 0.19 in4.8 mm
11:45 PM 33.6°F0.9°C 32.3°F0.2°C 95% 4.4 mph SE7.1 kmh SE 6.8 mph10.9 kmh 28.91 in979.0 mb 0.00 in0.0 mm 0.00 in0.0 mm 0.19 in4.8 mm